createdAt,value
2023-02-18T00:01:36.181Z,16.80
2023-02-18T00:04:03.984Z,16.30
2023-02-18T00:06:34.043Z,17.25
2023-02-18T00:09:06.186Z,16.73
2023-02-18T00:11:37.872Z,17.15
2023-02-18T00:14:08.341Z,17.35
2023-02-18T00:16:36.445Z,17.27
2023-02-18T00:19:11.780Z,18.73
2023-02-18T00:21:39.682Z,19.13
2023-02-18T00:24:10.734Z,17.95
2023-02-18T00:26:38.627Z,18.87
2023-02-18T00:29:06.252Z,19.23
2023-02-18T00:31:36.674Z,20.05
2023-02-18T00:34:05.593Z,20.42
2023-02-18T00:36:33.221Z,21.50
2023-02-18T00:39:03.869Z,20.60
2023-02-18T00:41:33.796Z,21.08
2023-02-18T00:44:03.476Z,20.95
2023-02-18T00:46:31.894Z,20.55
2023-02-18T00:49:02.118Z,21.48
2023-02-18T00:51:29.876Z,22.27
2023-02-18T00:54:00.512Z,21.23
2023-02-18T00:56:28.440Z,21.08
2023-02-18T00:58:58.548Z,21.08
2023-02-18T01:01:26.247Z,21.52
2023-02-18T01:03:53.826Z,21.73
2023-02-18T01:06:22.801Z,21.80
2023-02-18T01:08:50.576Z,22.08
2023-02-18T01:11:18.920Z,20.58
2023-02-18T01:13:47.296Z,22.45
2023-02-18T01:16:17.954Z,21.35
2023-02-18T01:18:47.548Z,22.40
2023-02-18T01:21:15.246Z,20.90
2023-02-18T01:23:43.912Z,20.90
2023-02-18T01:26:12.466Z,21.42
2023-02-18T01:28:40.770Z,23.02
2023-02-18T01:31:12.887Z,21.33
2023-02-18T01:33:42.860Z,20.13
2023-02-18T01:36:12.938Z,21.30
2023-02-18T01:38:41.057Z,21.27
2023-02-18T01:41:09.448Z,21.83
2023-02-18T01:43:37.969Z,21.67
2023-02-18T01:46:14.855Z,22.23
2023-02-18T01:48:52.434Z,22.83
2023-02-18T01:51:25.783Z,22.02
2023-02-18T01:53:57.647Z,21.38
2023-02-18T01:56:30.876Z,21.83
2023-02-18T01:59:03.358Z,20.55
2023-02-18T02:01:33.396Z,21.23
2023-02-18T02:04:04.335Z,21.37
2023-02-18T02:06:32.844Z,21.92
2023-02-18T02:09:07.493Z,22.27
2023-02-18T02:11:49.290Z,23.02
2023-02-18T02:14:26.847Z,22.88
2023-02-18T02:17:03.779Z,21.83
2023-02-18T02:20:11.743Z,22.73
2023-02-18T02:23:15.770Z,23.50
2023-02-18T02:26:07.728Z,23.90
2023-02-18T02:29:01.772Z,22.08
2023-02-18T02:32:00.651Z,24.15
2023-02-18T02:34:56.547Z,23.48
2023-02-18T02:37:34.905Z,22.25
2023-02-18T02:40:14.437Z,21.73
2023-02-18T02:42:51.962Z,22.35
2023-02-18T02:45:30.063Z,21.52
2023-02-18T02:48:09.634Z,20.65
2023-02-18T02:50:46.385Z,20.42
2023-02-18T02:53:20.209Z,20.88
2023-02-18T02:55:48.778Z,20.02
2023-02-18T03:01:02.233Z,18.13
2023-02-18T03:03:58.874Z,18.55
2023-02-18T03:07:04.303Z,17.58
2023-02-18T03:09:44.969Z,16.15
2023-02-18T03:12:21.777Z,15.57
2023-02-18T03:14:59.449Z,15.20
2023-02-18T03:17:31.297Z,15.75
2023-02-18T03:20:09.208Z,14.70
2023-02-18T03:22:41.694Z,14.82
2023-02-18T03:25:10.164Z,15.55
2023-02-18T03:27:46.023Z,15.80
2023-02-18T03:30:21.042Z,15.50
2023-02-18T03:32:52.975Z,15.00
2023-02-18T03:35:22.861Z,14.75
2023-02-18T03:38:02.815Z,16.20
2023-02-18T03:40:32.883Z,15.60
2023-02-18T03:43:03.264Z,15.98
2023-02-18T03:45:32.855Z,15.30
2023-02-18T03:48:01.396Z,17.15
2023-02-18T03:50:29.139Z,16.65
2023-02-18T03:52:58.421Z,16.45
2023-02-18T03:55:28.312Z,16.83
2023-02-18T03:57:56.392Z,16.25
2023-02-18T04:00:24.786Z,16.50
2023-02-18T04:02:53.875Z,17.45
2023-02-18T04:05:21.762Z,17.23
2023-02-18T04:07:49.783Z,19.52
2023-02-18T04:10:19.119Z,19.75
2023-02-18T04:12:47.792Z,20.38
2023-02-18T04:15:15.588Z,18.83
2023-02-18T04:17:43.245Z,18.35
2023-02-18T04:20:11.878Z,16.23
2023-02-18T04:22:40.239Z,15.77
2023-02-18T04:25:08.997Z,15.15
2023-02-18T04:27:41.692Z,15.05
2023-02-18T04:30:10.090Z,14.70
2023-02-18T04:32:38.430Z,13.50
2023-02-18T04:35:06.473Z,13.15
2023-02-18T04:37:34.374Z,12.85
2023-02-18T04:40:03.773Z,12.35
2023-02-18T04:42:31.382Z,11.55
2023-02-18T04:45:00.858Z,11.88
2023-02-18T04:47:29.248Z,10.60
2023-02-18T04:49:57.495Z,10.45
2023-02-18T04:52:28.766Z,9.93
2023-02-18T04:54:58.439Z,10.07
2023-02-18T04:57:26.114Z,9.80
2023-02-18T04:59:56.785Z,11.88
2023-02-18T05:02:51.387Z,12.05
2023-02-18T05:05:19.098Z,12.32
2023-02-18T05:07:48.216Z,13.73
2023-02-18T05:13:10.089Z,14.52
2023-02-18T05:15:37.965Z,15.65
2023-02-18T05:18:07.768Z,15.30
2023-02-18T05:20:36.194Z,15.18
2023-02-18T05:23:04.381Z,15.90
2023-02-18T05:25:56.658Z,15.35
2023-02-18T05:28:24.695Z,15.40
2023-02-18T05:30:55.811Z,16.25
2023-02-18T05:33:26.872Z,16.03
2023-02-18T05:35:54.564Z,16.52
2023-02-18T05:38:22.251Z,16.58
2023-02-18T05:40:50.869Z,18.55
2023-02-18T05:43:22.362Z,19.45
2023-02-18T05:45:50.782Z,19.25
2023-02-18T05:48:18.410Z,19.92
2023-02-18T05:50:47.958Z,19.50
2023-02-18T05:53:17.641Z,19.45
2023-02-18T05:55:47.543Z,18.05
2023-02-18T05:58:16.946Z,16.35
2023-02-18T06:00:45.774Z,16.48
2023-02-18T06:03:13.381Z,14.23
2023-02-18T06:08:38.786Z,13.38
2023-02-18T06:11:06.656Z,13.20
2023-02-18T06:13:35.266Z,13.20
2023-02-18T06:18:55.780Z,12.27
2023-02-18T06:21:48.916Z,10.73
2023-02-18T06:24:19.970Z,11.52
2023-02-18T06:26:47.541Z,10.68
2023-02-18T06:29:15.323Z,10.32
2023-02-18T06:31:43.879Z,9.52
2023-02-18T06:34:11.557Z,9.95
2023-02-18T06:36:39.364Z,9.10
2023-02-18T06:39:07.873Z,9.40
2023-02-18T06:41:36.894Z,8.85
2023-02-18T06:44:05.752Z,8.50
2023-02-18T06:46:33.507Z,8.85
2023-02-18T06:49:01.397Z,8.05
2023-02-18T06:51:29.376Z,8.07
2023-02-18T06:53:57.051Z,8.02
2023-02-18T06:56:25.134Z,8.57
2023-02-18T06:58:54.628Z,8.38
2023-02-18T07:01:22.866Z,7.85
2023-02-18T07:03:50.561Z,7.30
2023-02-18T07:06:18.564Z,7.20
2023-02-18T07:08:46.195Z,7.60
2023-02-18T07:11:14.905Z,6.75
2023-02-18T07:13:42.500Z,6.28
2023-02-18T07:16:12.012Z,5.65
2023-02-18T07:18:39.876Z,5.72
2023-02-18T07:21:07.487Z,5.00
2023-02-18T07:23:35.439Z,4.93
2023-02-18T07:26:08.777Z,4.60
2023-02-18T07:28:36.813Z,4.78
2023-02-18T07:31:06.218Z,3.90
2023-02-18T07:33:36.945Z,4.40
2023-02-18T07:36:07.430Z,4.40
2023-02-18T07:38:38.794Z,4.43
2023-02-18T07:41:07.448Z,4.13
2023-02-18T07:43:35.244Z,4.28
2023-02-18T07:46:08.207Z,4.15
2023-02-18T07:48:37.798Z,4.28
2023-02-18T07:51:06.882Z,3.65
2023-02-18T07:53:36.753Z,3.60
2023-02-18T07:56:05.989Z,3.38
2023-02-18T07:58:36.584Z,3.67
2023-02-18T08:01:06.785Z,3.17
2023-02-18T08:03:35.371Z,3.00
2023-02-18T08:06:06.617Z,2.55
2023-02-18T08:11:52.914Z,2.05
2023-02-18T08:14:22.778Z,2.15
2023-02-18T08:16:56.788Z,1.95
2023-02-18T08:19:26.873Z,1.60
2023-02-18T08:21:55.886Z,1.73
2023-02-18T08:24:23.563Z,1.60
2023-02-18T08:27:00.259Z,1.65
2023-02-18T08:29:30.920Z,1.90
2023-02-18T08:32:03.279Z,1.67
2023-02-18T08:34:30.966Z,1.75
2023-02-18T08:36:59.926Z,1.75
2023-02-18T08:39:33.811Z,1.83
2023-02-18T08:42:06.895Z,1.60
2023-02-18T08:44:35.831Z,1.85
2023-02-18T08:47:04.741Z,1.90
2023-02-18T08:49:55.801Z,1.98
2023-02-18T08:52:25.888Z,1.85
2023-02-18T08:54:53.575Z,1.90
2023-02-18T08:57:21.249Z,2.00
2023-02-18T08:59:49.131Z,2.03
2023-02-18T09:02:17.799Z,1.90
2023-02-18T09:04:50.771Z,2.08
2023-02-18T09:07:20.811Z,2.15
2023-02-18T09:09:49.814Z,2.17
2023-02-18T09:12:17.447Z,2.17
2023-02-18T09:14:45.186Z,2.10
2023-02-18T09:17:13.314Z,2.38
2023-02-18T09:19:42.804Z,2.70
2023-02-18T09:22:10.475Z,2.47
2023-02-18T09:24:39.074Z,2.80
2023-02-18T09:27:11.202Z,4.70
2023-02-18T09:29:40.808Z,5.57
2023-02-18T09:32:13.201Z,6.03
2023-02-18T09:34:43.537Z,6.38
2023-02-18T09:37:14.772Z,5.93
2023-02-18T09:39:43.943Z,5.45
2023-02-18T09:42:38.475Z,5.22
2023-02-18T09:45:12.332Z,4.75
2023-02-18T09:47:43.371Z,4.25
2023-02-18T09:50:19.337Z,3.60
2023-02-18T09:52:47.594Z,3.53
2023-02-18T09:55:19.959Z,3.30
2023-02-18T09:57:51.428Z,3.45
2023-02-18T10:00:23.767Z,2.97
2023-02-18T10:02:56.758Z,3.20
2023-02-18T10:05:25.596Z,3.40
2023-02-18T10:07:57.445Z,3.38
2023-02-18T10:10:38.861Z,3.30
2023-02-18T10:13:38.707Z,3.60
2023-02-18T10:16:09.216Z,3.47
2023-02-18T10:18:42.629Z,3.83
2023-02-18T10:21:15.830Z,4.25
2023-02-18T10:23:53.492Z,4.55
2023-02-18T10:26:22.615Z,5.32
2023-02-18T10:28:52.495Z,4.90
2023-02-18T10:31:26.635Z,5.20
2023-02-18T10:34:01.965Z,5.05
2023-02-18T10:36:36.670Z,5.40
2023-02-18T10:39:21.711Z,5.25
2023-02-18T10:42:02.788Z,5.60
2023-02-18T10:44:43.836Z,5.30
2023-02-18T10:47:22.657Z,5.30
2023-02-18T10:50:01.903Z,5.85
2023-02-18T10:52:34.768Z,5.15
2023-02-18T10:55:05.426Z,4.88
2023-02-18T10:57:34.514Z,5.10
2023-02-18T11:00:18.002Z,4.70
2023-02-18T11:02:47.821Z,4.50
2023-02-18T11:05:24.195Z,4.55
2023-02-18T11:07:56.787Z,4.38
2023-02-18T11:10:26.949Z,5.13
2023-02-18T11:13:01.777Z,4.95
2023-02-18T11:15:32.012Z,4.70
2023-02-18T11:18:14.788Z,4.65
2023-02-18T11:20:42.665Z,4.72
2023-02-18T11:23:20.252Z,4.43
2023-02-18T11:25:57.686Z,4.40
2023-02-18T11:28:34.501Z,4.60
2023-02-18T11:31:05.151Z,4.53
2023-02-18T11:33:36.740Z,4.43
2023-02-18T11:36:19.818Z,4.57
2023-02-18T11:38:56.737Z,4.43
2023-02-18T11:41:34.778Z,4.00
2023-02-18T11:44:03.834Z,4.40
2023-02-18T11:46:32.960Z,4.13
2023-02-18T11:49:21.952Z,3.75
2023-02-18T11:51:54.810Z,4.20
2023-02-18T11:54:26.584Z,4.38
2023-02-18T11:56:59.970Z,4.75
2023-02-18T11:59:28.874Z,4.13
2023-02-18T12:02:04.708Z,4.00
2023-02-18T12:04:41.904Z,4.32
2023-02-18T12:07:20.159Z,4.03
2023-02-18T12:09:50.794Z,4.65
2023-02-18T12:12:27.816Z,3.88
2023-02-18T12:15:02.929Z,4.10
2023-02-18T12:17:53.812Z,3.70
2023-02-18T12:20:47.567Z,4.00
2023-02-18T12:23:24.890Z,4.28
2023-02-18T12:26:01.795Z,4.25
2023-02-18T12:28:42.639Z,4.10
2023-02-18T12:31:26.922Z,4.15
2023-02-18T12:34:10.177Z,3.92
2023-02-18T12:36:50.926Z,4.00
2023-02-18T12:39:31.720Z,3.90
2023-02-18T12:42:23.574Z,4.32
2023-02-18T12:45:08.602Z,4.13
2023-02-18T12:47:50.835Z,4.00
2023-02-18T12:50:47.885Z,4.20
2023-02-18T12:53:45.981Z,4.65
2023-02-18T12:56:48.676Z,4.47
2023-02-18T12:59:37.078Z,4.88
2023-02-18T13:02:19.265Z,5.10
2023-02-18T13:04:59.840Z,5.32
2023-02-18T13:07:42.510Z,5.10
2023-02-18T13:13:29.802Z,5.47
2023-02-18T13:16:01.908Z,5.00
2023-02-18T13:21:27.278Z,5.32
2023-02-18T13:24:00.422Z,5.20
2023-02-18T13:26:32.464Z,5.38
2023-02-18T13:29:18.781Z,5.22
2023-02-18T13:32:03.107Z,5.40
2023-02-18T13:34:40.214Z,5.90
2023-02-18T13:37:15.818Z,6.13
2023-02-18T13:39:51.668Z,5.97
2023-02-18T13:42:38.243Z,5.50
2023-02-18T13:45:25.925Z,5.70
2023-02-18T13:47:54.652Z,5.43
2023-02-18T13:50:29.403Z,5.45
2023-02-18T13:53:14.901Z,4.93
2023-02-18T13:55:53.604Z,5.00
2023-02-18T13:58:23.906Z,4.82
2023-02-18T14:00:56.612Z,4.57
2023-02-18T14:03:38.151Z,4.20
2023-02-18T14:06:18.005Z,4.47
2023-02-18T14:08:47.787Z,4.47
2023-02-18T14:11:42.136Z,4.00
2023-02-18T14:14:41.541Z,4.07
2023-02-18T14:17:36.796Z,4.50
2023-02-18T14:20:34.912Z,4.40
2023-02-18T14:23:02.804Z,4.22
2023-02-18T14:25:39.216Z,4.65
2023-02-18T14:28:39.784Z,4.20
2023-02-18T14:31:29.778Z,4.63
2023-02-18T14:34:47.197Z,4.20
2023-02-18T14:37:31.934Z,4.65
2023-02-18T14:40:16.067Z,4.53
2023-02-18T14:42:54.340Z,4.82
2023-02-18T14:45:34.849Z,5.18
2023-02-18T14:48:26.724Z,5.43
2023-02-18T14:50:56.549Z,5.10
2023-02-18T14:53:27.209Z,5.20
2023-02-18T14:56:00.585Z,5.20
2023-02-18T14:58:32.980Z,5.18
2023-02-18T15:01:08.791Z,5.18
2023-02-18T15:03:36.528Z,4.82
2023-02-18T15:06:04.398Z,5.03
2023-02-18T15:08:38.623Z,5.07
2023-02-18T15:11:09.473Z,4.82
2023-02-18T15:13:44.140Z,4.53
2023-02-18T15:16:20.126Z,4.40
2023-02-18T15:18:52.656Z,4.30
2023-02-18T15:21:23.404Z,4.10
2023-02-18T15:23:52.619Z,4.70
2023-02-18T15:26:22.355Z,4.90
2023-02-18T15:28:59.828Z,5.47
2023-02-18T15:31:31.244Z,5.43
2023-02-18T15:33:59.804Z,5.32
2023-02-18T15:36:28.192Z,5.50
2023-02-18T15:38:58.284Z,5.50
2023-02-18T15:41:26.422Z,5.65
2023-02-18T15:43:56.553Z,5.60
2023-02-18T15:46:26.365Z,5.53
2023-02-18T15:48:57.699Z,5.60
2023-02-18T15:51:29.706Z,5.70
2023-02-18T15:54:01.024Z,4.88
2023-02-18T15:56:33.498Z,5.20
2023-02-18T16:01:39.056Z,5.50
2023-02-18T16:04:09.126Z,5.35
2023-02-18T16:06:39.037Z,5.93
2023-02-18T16:09:16.939Z,5.70
2023-02-18T16:11:48.304Z,5.45
2023-02-18T16:14:29.464Z,5.63
2023-02-18T16:17:11.260Z,5.97
2023-02-18T16:20:02.739Z,5.97
2023-02-18T16:25:09.387Z,5.30
2023-02-18T16:27:46.752Z,5.25
2023-02-18T16:30:17.860Z,6.03
2023-02-18T16:32:46.867Z,5.75
2023-02-18T16:35:16.050Z,5.50
2023-02-18T16:37:47.850Z,5.43
2023-02-18T16:40:29.038Z,5.70
2023-02-18T16:42:59.176Z,5.57
2023-02-18T16:45:34.725Z,5.50
2023-02-18T16:48:02.994Z,5.43
2023-02-18T16:50:34.914Z,5.57
2023-02-18T16:55:31.694Z,5.25
2023-02-18T16:57:59.430Z,5.78
2023-02-18T17:00:27.146Z,5.88
2023-02-18T17:02:59.289Z,5.65
2023-02-18T17:05:29.160Z,6.03
2023-02-18T17:08:01.001Z,5.50
2023-02-18T17:10:35.826Z,5.70
2023-02-18T17:13:04.475Z,5.88
2023-02-18T17:15:35.430Z,5.38
2023-02-18T17:18:04.557Z,5.60
2023-02-18T17:20:33.772Z,5.68
2023-02-18T17:23:02.827Z,5.10
2023-02-18T17:25:33.643Z,5.03
2023-02-18T17:28:02.007Z,5.13
2023-02-18T17:30:30.207Z,5.55
2023-02-18T17:33:01.753Z,5.10
2023-02-18T17:35:30.966Z,5.40
2023-02-18T17:37:59.950Z,5.13
2023-02-18T17:40:30.195Z,5.60
2023-02-18T17:42:58.334Z,5.38
2023-02-18T17:45:29.671Z,6.00
2023-02-18T17:47:57.870Z,6.28
2023-02-18T17:50:25.886Z,5.57
2023-02-18T17:52:53.696Z,5.93
2023-02-18T17:55:25.920Z,6.28
2023-02-18T17:57:55.619Z,5.90
2023-02-18T18:00:26.267Z,5.70
2023-02-18T18:02:54.192Z,6.47
2023-02-18T18:05:24.383Z,6.13
2023-02-18T18:07:53.107Z,5.70
2023-02-18T18:10:23.117Z,6.03
2023-02-18T18:12:51.227Z,5.10
2023-02-18T18:15:27.468Z,5.93
2023-02-18T18:17:55.788Z,6.07
2023-02-18T18:20:26.085Z,5.97
2023-02-18T18:22:56.104Z,5.75
2023-02-18T18:25:26.416Z,6.50
2023-02-18T18:27:54.302Z,6.75
2023-02-18T18:30:25.675Z,6.55
2023-02-18T18:32:53.720Z,6.80
2023-02-18T18:35:25.962Z,6.38
2023-02-18T18:37:53.792Z,6.60
2023-02-18T18:40:23.453Z,6.93
2023-02-18T18:42:51.133Z,6.93
2023-02-18T18:45:21.871Z,6.45
2023-02-18T18:47:52.674Z,7.05
2023-02-18T18:50:21.084Z,7.05
2023-02-18T18:52:50.658Z,7.43
2023-02-18T18:55:25.009Z,7.18
2023-02-18T18:57:53.440Z,7.90
2023-02-18T19:00:23.965Z,7.80
2023-02-18T19:02:53.946Z,7.60
2023-02-18T19:05:26.064Z,7.57
2023-02-18T19:07:54.222Z,8.35
2023-02-18T19:10:22.690Z,8.13
2023-02-18T19:12:51.195Z,7.60
2023-02-18T19:15:21.507Z,8.30
2023-02-18T19:17:52.205Z,7.22
2023-02-18T19:20:23.948Z,7.20
2023-02-18T19:22:52.032Z,7.80
2023-02-18T19:25:20.646Z,7.50
2023-02-18T19:27:49.873Z,7.75
2023-02-18T19:30:19.396Z,7.20
2023-02-18T19:32:47.201Z,7.00
2023-02-18T19:35:14.984Z,7.20
2023-02-18T19:37:44.177Z,7.85
2023-02-18T19:40:14.237Z,7.85
2023-02-18T19:42:42.275Z,7.75
2023-02-18T19:45:11.126Z,7.97
2023-02-18T19:47:39.283Z,8.88
2023-02-18T19:50:10.828Z,8.40
2023-02-18T19:52:38.516Z,8.02
2023-02-18T19:55:08.944Z,8.48
2023-02-18T19:57:36.887Z,8.88
2023-02-18T20:00:08.376Z,8.23
2023-02-18T20:02:40.817Z,9.02
2023-02-18T20:05:11.922Z,8.90
2023-02-18T20:07:41.378Z,9.73
2023-02-18T20:10:13.057Z,9.63
2023-02-18T20:12:41.643Z,9.68
2023-02-18T20:15:09.770Z,9.25
2023-02-18T20:17:38.656Z,8.88
2023-02-18T20:20:07.418Z,8.88
2023-02-18T20:22:36.087Z,8.43
2023-02-18T20:25:04.288Z,8.93
2023-02-18T20:27:34.211Z,8.93
2023-02-18T20:30:01.928Z,9.15
2023-02-18T20:32:29.729Z,9.00
2023-02-18T20:34:57.674Z,9.68
2023-02-18T20:37:25.565Z,10.65
2023-02-18T20:39:53.197Z,10.18
2023-02-18T20:42:20.858Z,10.00
2023-02-18T20:44:51.511Z,9.82
2023-02-18T20:47:19.246Z,10.30
2023-02-18T20:49:48.403Z,10.82
2023-02-18T20:52:16.606Z,11.85
2023-02-18T20:54:44.255Z,11.48
2023-02-18T20:57:12.431Z,11.77
2023-02-18T20:59:40.072Z,11.88
2023-02-18T21:02:09.500Z,12.23
2023-02-18T21:04:38.928Z,12.68
2023-02-18T21:07:06.675Z,11.35
2023-02-18T21:09:34.337Z,11.77
2023-02-18T21:12:03.863Z,13.02
2023-02-18T21:14:31.521Z,12.00
2023-02-18T21:16:59.162Z,11.23
2023-02-18T21:19:28.833Z,11.48
2023-02-18T21:21:56.854Z,11.50
2023-02-18T21:24:24.548Z,11.57
2023-02-18T21:26:53.646Z,12.38
2023-02-18T21:29:21.384Z,11.70
2023-02-18T21:31:50.727Z,11.93
2023-02-18T21:34:19.390Z,11.93
2023-02-18T21:36:48.414Z,12.02
2023-02-18T21:39:16.906Z,12.75
2023-02-18T21:41:44.674Z,11.00
2023-02-18T21:44:12.258Z,11.77
2023-02-18T21:46:41.835Z,12.07
2023-02-18T21:49:12.433Z,11.40
2023-02-18T21:52:08.385Z,12.23
2023-02-18T21:54:40.286Z,11.02
2023-02-18T21:57:10.558Z,11.77
2023-02-18T21:59:39.125Z,11.93
2023-02-18T22:02:08.379Z,11.32
2023-02-18T22:04:37.989Z,11.40
2023-02-18T22:07:05.689Z,10.77
2023-02-18T22:09:33.473Z,10.45
2023-02-18T22:12:03.630Z,10.60
2023-02-18T22:14:31.448Z,10.80
2023-02-18T22:16:59.479Z,10.02
2023-02-18T22:19:27.377Z,9.80
2023-02-18T22:21:55.559Z,9.02
2023-02-18T22:24:23.299Z,9.32
2023-02-18T22:26:52.342Z,9.02
2023-02-18T22:29:21.869Z,9.73
2023-02-18T22:31:53.117Z,9.95
2023-02-18T22:34:21.890Z,9.80
2023-02-18T22:36:49.723Z,9.75
2023-02-18T22:39:17.745Z,10.52
2023-02-18T22:41:45.417Z,10.05
2023-02-18T22:44:15.840Z,10.07
2023-02-18T22:46:45.774Z,10.55
2023-02-18T22:51:44.898Z,10.10
2023-02-18T22:54:15.890Z,10.20
2023-02-18T22:56:44.030Z,9.87
2023-02-18T22:59:12.398Z,8.55
2023-02-18T23:01:41.858Z,7.75
2023-02-18T23:04:12.522Z,7.30
2023-02-18T23:06:42.645Z,6.80
2023-02-18T23:09:13.813Z,4.93
2023-02-18T23:11:41.897Z,4.03
2023-02-18T23:14:19.390Z,4.10
2023-02-18T23:17:06.148Z,4.00
2023-02-18T23:19:37.261Z,4.40
2023-02-18T23:22:05.825Z,5.47
2023-02-18T23:24:38.102Z,4.88
2023-02-18T23:27:06.663Z,4.85
2023-02-18T23:29:34.376Z,4.60
2023-02-18T23:32:02.345Z,5.35
2023-02-18T23:34:30.124Z,5.15
2023-02-18T23:36:59.934Z,8.15
2023-02-18T23:39:29.367Z,6.75
2023-02-18T23:41:57.592Z,6.38
2023-02-18T23:44:26.980Z,6.35
2023-02-18T23:46:54.628Z,6.68
2023-02-18T23:49:24.514Z,7.05
2023-02-18T23:51:53.535Z,8.48
2023-02-18T23:54:24.425Z,9.00
2023-02-18T23:56:52.094Z,10.27
2023-02-18T23:59:20.093Z,10.63
